Gamlingay, United Kingdom
Current Conditions -  °F | °C
As of 12:50 PM on Saturday 20 Dec 2014 (Local Time) from EGSC Reporting Station
Scattered Clouds Scattered Clouds  
Wind Chill: 42°   Ceiling: Unl
Heat Index: 48°   Visibility: 6mi
Dew Point: 37°   Wind: 18mph
Humidity: 66%   Direction: 270°W
Pressure: 30.24"   Gusts: NA
Location:  52.16°N, 0.19°W
Report Text: EGSC 201250Z 27016KT 250V310 9999 SCT035 09/03 Q1024
Loading
Personal Weather Stations






























Interactive Weather Map New forecast layout! Learn more

10-Day Weather Forecast

Advertisements
Track Severe Weather on mobile